Time;durP1;ratioP1;P1;durP2;ratioP2;P2;SDS_P1;SDS_P2;PMS_P1;PMS_P2;Temp;Humidity;BMP_temperature;BMP_pressure;BME280_temperature;BME280_humidity;BME280_pressure;Samples;Min_cycle;Max_cycle;Signal;HPM_P1;HPM_P2
2023/04/11 00:01:26;;;;;;;11.75;2.58;;;17.90;47.90;;;;;;5074277;28;20218;-70
2023/04/11 00:03:53;;;;;;;14.10;1.98;;;17.90;47.80;;;;;;5072874;28;20222;-71
2023/04/11 00:06:20;;;;;;;10.25;2.15;;;18.00;47.90;;;;;;5073804;28;20195;-71
2023/04/11 00:08:47;;;;;;;13.18;2.88;;;17.90;47.80;;;;;;5074689;28;20452;-71
2023/04/11 00:11:14;;;;;;;10.93;1.98;;;17.90;47.80;;;;;;5074146;28;20191;-71
2023/04/11 00:13:43;;;;;;;7.07;1.98;;;18.00;47.90;;;;;;5074093;28;20318;-71
2023/04/11 00:16:11;;;;;;;8.55;1.98;;;17.90;47.80;;;;;;5073938;28;20260;-71
2023/04/11 00:18:43;;;;;;;9.40;2.30;;;18.00;47.90;;;;;;5074127;28;20246;-71
2023/04/11 00:21:11;;;;;;;9.88;2.35;;;17.90;47.80;;;;;;5074293;28;20202;-71
2023/04/11 00:23:37;;;;;;;8.63;2.45;;;17.90;47.80;;;;;;5073532;28;20211;-71
2023/04/11 00:26:05;;;;;;;9.38;2.25;;;17.90;47.80;;;;;;5073662;28;20265;-71
2023/04/11 00:28:32;;;;;;;9.93;2.38;;;17.90;47.80;;;;;;5073923;28;20215;-70
2023/04/11 00:30:59;;;;;;;8.50;2.20;;;17.90;47.80;;;;;;5073106;28;20198;-71
2023/04/11 00:33:26;;;;;;;10.57;2.17;;;17.90;48.30;;;;;;5073840;28;20262;-71
2023/04/11 00:35:54;;;;;;;13.25;2.53;;;17.90;47.70;;;;;;5073518;28;20214;-71
2023/04/11 00:38:21;;;;;;;9.82;2.45;;;17.90;48.40;;;;;;5073309;28;20734;-71
2023/04/11 00:40:49;;;;;;;10.35;2.00;;;17.90;47.80;;;;;;5073286;28;20226;-71
2023/04/11 00:43:16;;;;;;;9.02;2.17;;;17.90;47.70;;;;;;5073211;28;20268;-71
2023/04/11 00:45:43;;;;;;;11.80;2.38;;;17.90;47.70;;;;;;5073017;28;20222;-71
2023/04/11 00:48:10;;;;;;;9.43;2.38;;;17.90;47.70;;;;;;5073348;28;20250;-71
2023/04/11 00:50:41;;;;;;;10.27;2.70;;;17.90;47.70;;;;;;5073348;28;20284;-70
2023/04/11 00:53:12;;;;;;;11.27;2.30;;;17.90;47.70;;;;;;5071757;28;20238;-71
2023/04/11 00:55:39;;;;;;;13.15;2.38;;;17.90;47.70;;;;;;5073273;28;20214;-71
2023/04/11 00:58:07;;;;;;;8.10;2.30;;;17.90;47.70;;;;;;5072070;28;20215;-71
2023/04/11 01:00:35;;;;;;;11.73;2.55;;;17.80;47.60;;;;;;5071570;28;20202;-71
2023/04/11 01:03:02;;;;;;;9.73;2.10;;;17.90;47.70;;;;;;5073199;28;20214;-70
2023/04/11 01:05:30;;;;;;;8.00;2.03;;;17.80;47.60;;;;;;5072951;28;20210;-71
2023/04/11 01:07:57;;;;;;;11.20;2.58;;;17.80;47.70;;;;;;5072783;28;20211;-71
2023/04/11 01:10:29;;;;;;;6.45;2.13;;;17.80;47.50;;;;;;5072903;28;20225;-70
2023/04/11 01:12:59;;;;;;;9.30;2.25;;;17.90;47.70;;;;;;5072926;28;20231;-70
2023/04/11 01:15:26;;;;;;;8.88;2.63;;;17.80;47.60;;;;;;5072504;28;20222;-71
2023/04/11 01:17:54;;;;;;;12.50;2.47;;;17.90;47.60;;;;;;5072551;28;20256;-71
2023/04/11 01:20:21;;;;;;;8.25;2.28;;;17.80;47.60;;;;;;5072788;28;20198;-71
2023/04/11 01:22:49;;;;;;;12.13;2.38;;;17.80;47.50;;;;;;5072378;28;20618;-71
2023/04/11 01:25:20;;;;;;;9.40;2.00;;;17.80;47.60;;;;;;5072417;28;20226;-70
2023/04/11 01:27:48;;;;;;;9.40;2.30;;;17.80;47.50;;;;;;5072826;28;20210;-71
2023/04/11 01:30:15;;;;;;;10.20;2.65;;;17.80;47.50;;;;;;5072441;28;20642;-71
2023/04/11 01:32:42;;;;;;;6.80;1.98;;;17.80;47.50;;;;;;5072283;28;20681;-70
2023/04/11 01:35:11;;;;;;;9.18;2.53;;;17.80;47.50;;;;;;5070936;28;20664;-71
2023/04/11 01:37:38;;;;;;;9.07;2.20;;;17.80;47.50;;;;;;5072631;28;20588;-71
2023/04/11 01:40:07;;;;;;;9.02;2.28;;;17.80;47.50;;;;;;5072187;28;20218;-71
2023/04/11 01:42:36;;;;;;;7.90;2.28;;;17.80;47.50;;;;;;5071757;28;20584;-71
2023/04/11 01:45:05;;;;;;;8.75;2.03;;;17.80;47.50;;;;;;5072063;28;20641;-71
2023/04/11 01:47:32;;;;;;;8.18;2.22;;;17.80;47.50;;;;;;5072373;28;20299;-71
2023/04/11 01:49:59;;;;;;;9.10;2.03;;;17.80;47.50;;;;;;5072061;28;20628;-71
2023/04/11 01:52:26;;;;;;;9.27;1.95;;;17.80;47.50;;;;;;5072293;28;20246;-70
2023/04/11 01:54:53;;;;;;;8.15;2.10;;;17.80;47.50;;;;;;5072209;28;20190;-71
2023/04/11 01:57:20;;;;;;;9.90;2.42;;;17.80;47.50;;;;;;5054479;28;20225;-71
2023/04/11 01:59:49;;;;;;;7.75;2.20;;;17.80;47.50;;;;;;5071916;28;20218;-70
2023/04/11 02:02:16;;;;;;;9.25;2.20;;;17.80;47.50;;;;;;5071998;28;20564;-71
2023/04/11 02:04:43;;;;;;;9.75;2.15;;;17.80;47.50;;;;;;5072129;28;20187;-71
2023/04/11 02:07:10;;;;;;;8.02;2.10;;;17.80;47.40;;;;;;5072197;28;20215;-71
2023/04/11 02:09:37;;;;;;;10.88;2.40;;;17.80;47.40;;;;;;5071885;28;20209;-70
2023/04/11 02:12:05;;;;;;;7.18;1.85;;;17.80;47.40;;;;;;5071827;28;20218;-71
2023/04/11 02:14:41;;;;;;;11.63;2.50;;;17.80;47.50;;;;;;5072056;28;20249;-71
2023/04/11 02:17:10;;;;;;;8.93;2.25;;;17.70;47.40;;;;;;5072160;28;20193;-71
2023/04/11 02:19:39;;;;;;;10.57;2.17;;;17.80;47.40;;;;;;5071815;28;20653;-70
2023/04/11 02:22:06;;;;;;;9.32;2.53;;;17.80;47.40;;;;;;5072336;28;20191;-71
2023/04/11 02:24:33;;;;;;;9.23;2.08;;;17.70;47.20;;;;;;5071852;28;20222;-71
2023/04/11 02:27:01;;;;;;;11.02;2.15;;;17.70;47.20;;;;;;5071595;28;20221;-71
2023/04/11 02:29:28;;;;;;;9.05;2.47;;;17.70;47.20;;;;;;5072554;28;20238;-71
2023/04/11 02:31:55;;;;;;;10.90;2.42;;;17.70;47.30;;;;;;5071996;28;20241;-71
2023/04/11 02:34:24;;;;;;;7.47;2.45;;;17.70;47.30;;;;;;5071724;28;20226;-71
2023/04/11 02:36:51;;;;;;;13.10;2.20;;;17.70;47.30;;;;;;5072086;28;20223;-71
2023/04/11 02:39:19;;;;;;;7.18;2.28;;;17.70;47.20;;;;;;5071848;28;20214;-71
2023/04/11 02:41:46;;;;;;;9.60;1.90;;;17.80;48.00;;;;;;5071700;28;20229;-70
2023/04/11 02:44:13;;;;;;;10.38;2.50;;;17.80;47.30;;;;;;5071766;28;20247;-71
2023/04/11 02:46:40;;;;;;;11.52;2.47;;;17.70;47.90;;;;;;5071734;28;20222;-71
2023/04/11 02:49:07;;;;;;;8.35;1.73;;;17.70;47.20;;;;;;5072108;28;20314;-70
2023/04/11 02:51:35;;;;;;;10.57;2.40;;;17.70;47.20;;;;;;5071478;28;20250;-71
2023/04/11 02:54:03;;;;;;;14.25;2.60;;;17.70;47.20;;;;;;5073812;28;20289;-71
2023/04/11 02:56:32;;;;;;;7.05;2.20;;;17.70;47.20;;;;;;5075187;28;20736;-71
2023/04/11 02:58:59;;;;;;;11.52;2.28;;;17.70;47.20;;;;;;5075607;28;20239;-71
2023/04/11 03:01:27;;;;;;;11.52;2.45;;;17.70;47.20;;;;;;5075403;28;20217;-71
2023/04/11 03:03:54;;;;;;;7.80;2.00;;;17.70;47.20;;;;;;5075355;28;20218;-71
2023/04/11 03:06:22;;;;;;;6.93;2.28;;;17.60;47.10;;;;;;5075064;28;20599;-71
2023/04/11 03:08:51;;;;;;;10.98;2.15;;;17.70;47.20;;;;;;5075180;28;20215;-71
2023/04/11 03:11:18;;;;;;;7.43;2.15;;;17.80;47.30;;;;;;5074984;28;20723;-71
2023/04/11 03:13:45;;;;;;;8.25;1.92;;;17.60;47.10;;;;;;5074958;28;20270;-71
2023/04/11 03:16:12;;;;;;;7.10;2.20;;;17.70;47.20;;;;;;5075397;28;20229;-70
2023/04/11 03:18:39;;;;;;;9.35;2.55;;;17.70;47.20;;;;;;5075503;28;20292;-70
2023/04/11 03:21:09;;;;;;;12.52;2.03;;;17.70;47.20;;;;;;5075284;28;20206;-70
2023/04/11 03:23:36;;;;;;;11.30;2.13;;;17.70;47.20;;;;;;5074955;28;20218;-71
2023/04/11 03:26:05;;;;;;;7.68;2.13;;;17.70;47.20;;;;;;5074680;28;20254;-71
2023/04/11 03:28:32;;;;;;;10.48;1.83;;;17.60;47.10;;;;;;5074866;28;20250;-71
2023/04/11 03:30:59;;;;;;;5.93;2.22;;;17.70;47.20;;;;;;5073729;28;20248;-71
2023/04/11 03:33:26;;;;;;;9.52;2.08;;;17.60;47.10;;;;;;5074824;28;20231;-71
2023/04/11 03:35:53;;;;;;;9.63;2.08;;;17.60;47.10;;;;;;5074663;28;20234;-70
2023/04/11 03:38:20;;;;;;;7.78;2.20;;;17.60;47.00;;;;;;5074375;28;20261;-70
2023/04/11 03:40:47;;;;;;;8.60;2.00;;;17.60;47.00;;;;;;5074402;28;20550;-71
2023/04/11 03:43:16;;;;;;;9.13;2.63;;;17.60;47.00;;;;;;5074733;28;20250;-71
2023/04/11 03:45:43;;;;;;;8.90;1.85;;;17.60;47.10;;;;;;5073482;28;20187;-70
2023/04/11 03:48:10;;;;;;;9.00;2.10;;;17.70;47.10;;;;;;5075058;28;20246;-71
2023/04/11 03:50:38;;;;;;;8.68;2.05;;;17.60;47.00;;;;;;5086950;28;20635;-71
2023/04/11 03:53:06;;;;;;;9.95;2.10;;;17.60;47.00;;;;;;5081506;28;20248;-70
2023/04/11 03:55:33;;;;;;;8.43;2.15;;;17.60;47.10;;;;;;5093427;28;20209;-70
2023/04/11 03:58:00;;;;;;;6.88;1.98;;;17.60;47.00;;;;;;5094540;28;20241;-71
2023/04/11 04:00:28;;;;;;;10.35;1.85;;;17.60;47.10;;;;;;5094591;28;20218;-71
2023/04/11 04:02:55;;;;;;;10.05;2.20;;;17.60;47.00;;;;;;5094431;28;20268;-71
2023/04/11 04:05:22;;;;;;;10.63;2.30;;;17.60;47.00;;;;;;5093224;28;20674;-71
2023/04/11 04:07:49;;;;;;;7.20;2.17;;;17.70;47.20;;;;;;5092952;28;20253;-71
2023/04/11 04:10:16;;;;;;;6.05;1.80;;;17.60;47.00;;;;;;5094165;28;20224;-71
2023/04/11 04:12:44;;;;;;;8.88;1.98;;;17.60;47.10;;;;;;5093839;28;20253;-71
2023/04/11 04:15:13;;;;;;;10.45;2.15;;;17.60;47.10;;;;;;5094151;28;20209;-71
2023/04/11 04:17:42;;;;;;;8.25;1.80;;;17.60;47.00;;;;;;5094314;28;20218;-71
2023/04/11 04:20:10;;;;;;;8.73;2.33;;;17.60;47.10;;;;;;5093898;28;20222;-71
2023/04/11 04:22:37;;;;;;;9.90;1.90;;;17.60;47.10;;;;;;5093808;28;20214;-71
2023/04/11 04:25:04;;;;;;;9.02;2.00;;;17.60;47.10;;;;;;5093563;28;20233;-70
2023/04/11 04:27:32;;;;;;;10.63;2.35;;;17.60;47.10;;;;;;5093933;28;20233;-70
2023/04/11 04:29:59;;;;;;;9.60;2.35;;;17.60;47.10;;;;;;5093679;28;20182;-71
2023/04/11 04:32:27;;;;;;;8.32;1.92;;;17.50;47.00;;;;;;5092750;28;20217;-71
2023/04/11 04:34:56;;;;;;;6.68;1.85;;;17.60;47.00;;;;;;5093834;28;20218;-70
2023/04/11 04:37:26;;;;;;;11.13;1.90;;;17.60;47.10;;;;;;5093742;28;20186;-71
2023/04/11 04:39:54;;;;;;;9.35;2.33;;;17.60;47.10;;;;;;5093654;28;20209;-71
2023/04/11 04:42:23;;;;;;;7.35;1.88;;;17.50;47.00;;;;;;5093677;28;20216;-71
2023/04/11 04:44:50;;;;;;;8.63;1.92;;;17.60;47.10;;;;;;5093733;28;20200;-70
2023/04/11 04:47:17;;;;;;;10.27;2.10;;;17.60;47.10;;;;;;5093675;28;20214;-70
2023/04/11 04:49:45;;;;;;;6.75;2.05;;;17.60;47.10;;;;;;5093659;28;20224;-71
2023/04/11 04:52:14;;;;;;;10.95;2.40;;;17.70;47.20;;;;;;5093652;28;20198;-70
2023/04/11 04:54:41;;;;;;;6.32;1.80;;;17.60;47.10;;;;;;5093199;28;20318;-70
2023/04/11 04:57:08;;;;;;;6.18;2.03;;;17.70;47.20;;;;;;5093517;28;20185;-71
2023/04/11 04:59:35;;;;;;;6.60;1.85;;;17.70;47.10;;;;;;5093021;28;20249;-71
2023/04/11 05:02:02;;;;;;;5.60;2.10;;;17.70;47.10;;;;;;5093384;28;20427;-71
2023/04/11 05:04:30;;;;;;;9.25;2.10;;;17.70;47.10;;;;;;5093268;28;20708;-71
2023/04/11 05:06:57;;;;;;;8.85;2.55;;;17.80;47.10;;;;;;5093276;28;20277;-71
2023/04/11 05:09:26;;;;;;;8.65;2.17;;;17.80;47.10;;;;;;5093681;28;20214;-71
2023/04/11 05:11:53;;;;;;;6.82;2.05;;;17.80;47.10;;;;;;5091775;28;20224;-70
2023/04/11 05:14:20;;;;;;;5.60;1.77;;;17.80;47.00;;;;;;5093243;28;20326;-71
2023/04/11 05:16:47;;;;;;;4.43;1.42;;;17.90;47.10;;;;;;5092931;28;20248;-71
2023/04/11 05:19:14;;;;;;;9.05;2.15;;;17.90;47.00;;;;;;5093188;28;20253;-71
2023/04/11 05:21:41;;;;;;;7.88;1.92;;;17.90;47.00;;;;;;5093034;28;20182;-71
2023/04/11 05:24:08;;;;;;;4.30;1.60;;;17.90;47.00;;;;;;5092516;28;20253;-71
2023/04/11 05:26:37;;;;;;;6.82;1.90;;;18.00;47.00;;;;;;5092500;28;20273;-71
2023/04/11 05:29:05;;;;;;;11.65;2.20;;;18.00;47.00;;;;;;5092980;28;20272;-71
2023/04/11 05:31:32;;;;;;;8.57;2.10;;;18.00;47.00;;;;;;5092838;28;20220;-70
2023/04/11 05:33:59;;;;;;;4.55;1.70;;;18.10;47.10;;;;;;5092731;28;20260;-71
2023/04/11 05:36:27;;;;;;;5.57;1.90;;;18.00;47.00;;;;;;5092700;28;20222;-71
2023/04/11 05:38:54;;;;;;;6.30;1.75;;;18.10;47.00;;;;;;5092941;28;20641;-71
2023/04/11 05:41:21;;;;;;;7.85;2.00;;;18.10;47.00;;;;;;5092974;28;20194;-71
2023/04/11 05:43:50;;;;;;;7.43;1.88;;;18.10;47.00;;;;;;5091421;28;20224;-71
2023/04/11 05:46:17;;;;;;;10.35;2.13;;;18.10;47.00;;;;;;5092663;28;20239;-71
2023/04/11 05:48:44;;;;;;;7.85;2.20;;;18.10;47.00;;;;;;5092664;28;20249;-70
2023/04/11 05:51:11;;;;;;;5.97;1.77;;;18.10;47.00;;;;;;5092894;28;20221;-70
2023/04/11 05:53:38;;;;;;;6.60;2.20;;;18.20;47.00;;;;;;5092493;28;20250;-71
2023/04/11 05:56:06;;;;;;;9.75;2.33;;;18.10;46.90;;;;;;5092578;28;20190;-71
2023/04/11 05:58:35;;;;;;;6.82;2.03;;;18.20;47.60;;;;;;5092625;28;20221;-71
2023/04/11 06:01:04;;;;;;;5.70;1.80;;;18.20;47.00;;;;;;5092762;28;20216;-71
2023/04/11 06:03:30;;;;;;;6.75;1.83;;;18.30;47.00;;;;;;5092202;28;20267;-71
2023/04/11 06:05:58;;;;;;;5.65;1.83;;;18.30;47.00;;;;;;5092331;28;20232;-71
2023/04/11 06:08:25;;;;;;;6.15;1.92;;;18.30;47.00;;;;;;5092583;28;20249;-70
2023/04/11 06:10:51;;;;;;;10.45;1.88;;;18.30;47.00;;;;;;5079354;28;20245;-71
2023/04/11 06:13:18;;;;;;;7.53;2.13;;;18.30;47.00;;;;;;5072559;28;20261;-72
2023/04/11 06:15:45;;;;;;;6.97;1.80;;;18.40;47.10;;;;;;5076642;28;20273;-72
2023/04/11 06:18:14;;;;;;;7.45;2.17;;;18.40;47.10;;;;;;5092076;28;20249;-71
2023/04/11 06:20:41;;;;;;;10.07;2.28;;;18.40;47.10;;;;;;5092168;28;20185;-71
2023/04/11 06:23:08;;;;;;;9.35;2.50;;;18.40;47.10;;;;;;5092128;28;20260;-69
2023/04/11 06:25:35;;;;;;;21.30;7.50;;;18.50;47.00;;;;;;5092053;28;20237;-69
2023/04/11 06:28:02;;;;;;;31.40;12.77;;;18.60;47.00;;;;;;5092757;28;20263;-68
2023/04/11 06:30:29;;;;;;;34.13;16.30;;;18.60;47.00;;;;;;5096356;28;20186;-68
2023/04/11 06:32:56;;;;;;;53.40;24.20;;;18.60;46.90;;;;;;5094895;28;20245;-69
2023/04/11 06:35:25;;;;;;;51.05;27.45;;;18.60;46.90;;;;;;5095716;28;20214;-68
2023/04/11 06:37:53;;;;;;;54.47;28.77;;;18.70;46.90;;;;;;5096118;28;20422;-68
2023/04/11 06:40:20;;;;;;;55.92;27.98;;;18.70;46.80;;;;;;5094810;28;20214;-69
2023/04/11 06:42:47;;;;;;;54.53;30.10;;;18.90;47.00;;;;;;5092534;28;20621;-69
2023/04/11 06:45:14;;;;;;;49.95;24.83;;;18.90;46.90;;;;;;5095845;28;20602;-70
2023/04/11 06:47:42;;;;;;;32.50;17.02;;;18.80;46.60;;;;;;5095775;28;20211;-69
2023/04/11 06:50:09;;;;;;;26.90;13.02;;;18.90;46.40;;;;;;5095267;28;20186;-71
2023/04/11 06:52:38;;;;;;;34.55;19.35;;;18.90;46.40;;;;;;5112719;28;20228;-72
2023/04/11 06:55:07;;;;;;;28.63;12.05;;;18.90;46.50;;;;;;5115870;27;20209;-73
2023/04/11 06:57:34;;;;;;;23.02;9.27;;;18.90;46.60;;;;;;5096670;28;20209;-72
2023/04/11 07:00:05;;;;;;;20.38;10.98;;;18.90;46.50;;;;;;5078730;28;20218;-71
2023/04/11 07:02:34;;;;;;;17.17;7.82;;;18.90;46.60;;;;;;5093490;28;20212;-72
2023/04/11 07:05:02;;;;;;;24.98;7.78;;;19.00;46.70;;;;;;5093578;28;20224;-73
2023/04/11 07:07:29;;;;;;;21.67;7.50;;;18.90;46.60;;;;;;5093644;28;20202;-73
2023/04/11 07:10:02;;;;;;;22.30;7.15;;;18.90;46.60;;;;;;5097299;28;20346;-72
2023/04/11 07:12:29;;;;;;;19.27;6.45;;;18.90;46.70;;;;;;5092372;28;20630;-72
2023/04/11 07:14:57;;;;;;;15.48;5.50;;;19.00;46.80;;;;;;5094042;28;20290;-76
2023/04/11 07:17:24;;;;;;;14.25;5.35;;;19.00;46.80;;;;;;5093432;28;20198;-72
2023/04/11 07:19:52;;;;;;;12.23;4.90;;;19.00;46.90;;;;;;5076202;28;20521;-72
2023/04/11 07:22:19;;;;;;;18.05;5.13;;;19.00;46.80;;;;;;5082969;28;20243;-73
2023/04/11 07:24:50;;;;;;;14.13;4.88;;;19.00;46.80;;;;;;5079354;28;20255;-72
2023/04/11 07:27:20;;;;;;;17.23;4.00;;;19.10;46.90;;;;;;5073078;28;20202;-72
2023/04/11 07:29:47;;;;;;;14.10;5.05;;;19.10;46.90;;;;;;5074036;28;20721;-71
2023/04/11 07:32:15;;;;;;;12.40;4.25;;;19.10;46.80;;;;;;5093869;28;20221;-72
2023/04/11 07:34:42;;;;;;;11.57;3.75;;;19.20;46.90;;;;;;5093697;28;20262;-73
2023/04/11 07:37:09;;;;;;;12.93;4.22;;;19.20;46.90;;;;;;5093784;28;20224;-72
2023/04/11 07:39:37;;;;;;;9.80;4.07;;;19.20;46.80;;;;;;5092699;28;20210;-72
2023/04/11 07:42:04;;;;;;;12.55;3.55;;;19.20;46.80;;;;;;5093654;28;20218;-72
2023/04/11 07:44:34;;;;;;;18.13;5.15;;;19.20;46.80;;;;;;5092998;28;20218;-71
2023/04/11 07:47:01;;;;;;;10.52;3.65;;;19.20;46.70;;;;;;5093641;28;20667;-71
2023/04/11 07:49:28;;;;;;;10.27;3.65;;;19.20;46.70;;;;;;5093480;28;20241;-72
2023/04/11 07:51:55;;;;;;;13.02;3.78;;;19.30;46.80;;;;;;5106984;28;20317;-71
2023/04/11 07:54:24;;;;;;;11.25;3.10;;;19.30;46.80;;;;;;5112771;28;20252;-71
2023/04/11 07:56:51;;;;;;;14.35;4.00;;;19.30;46.70;;;;;;5113733;28;20193;-72
2023/04/11 07:59:18;;;;;;;10.77;3.58;;;19.30;46.70;;;;;;5113955;28;20608;-71
2023/04/11 08:01:47;;;;;;;16.27;4.15;;;19.30;46.70;;;;;;5113865;28;20193;-72
2023/04/11 08:04:14;;;;;;;11.27;3.38;;;19.40;46.70;;;;;;5114385;28;20248;-73
2023/04/11 08:06:42;;;;;;;10.75;3.05;;;19.30;46.60;;;;;;5114186;28;20200;-71
2023/04/11 08:09:09;;;;;;;9.57;3.55;;;19.30;46.60;;;;;;5092352;28;20272;-71
2023/04/11 08:11:38;;;;;;;12.20;3.83;;;19.30;46.60;;;;;;5085776;28;20198;-72
2023/04/11 08:14:05;;;;;;;10.60;3.10;;;19.30;46.50;;;;;;5085445;28;20229;-71
2023/04/11 08:16:34;;;;;;;8.10;3.13;;;19.40;46.40;;;;;;5078950;28;20250;-72
2023/04/11 08:19:03;;;;;;;10.95;3.40;;;19.40;46.50;;;;;;5084577;28;20226;-71
2023/04/11 08:21:30;;;;;;;11.88;3.55;;;19.50;46.60;;;;;;5097213;28;20233;-72
2023/04/11 08:23:57;;;;;;;8.73;2.72;;;19.40;46.40;;;;;;5113704;28;20300;-72
2023/04/11 08:26:24;;;;;;;7.70;2.80;;;19.50;46.50;;;;;;5112981;28;20264;-72
2023/04/11 08:28:51;;;;;;;7.60;2.58;;;19.40;46.40;;;;;;5113305;28;20270;-72
2023/04/11 08:31:19;;;;;;;9.93;2.88;;;19.50;46.60;;;;;;5111989;28;20662;-72
2023/04/11 08:33:46;;;;;;;11.73;3.10;;;19.50;46.50;;;;;;5113395;28;20217;-72
2023/04/11 08:36:15;;;;;;;10.75;2.80;;;19.50;46.40;;;;;;5113176;28;20258;-73
2023/04/11 08:38:42;;;;;;;10.02;2.92;;;19.50;46.40;;;;;;5113249;28;20220;-73
2023/04/11 08:41:09;;;;;;;14.27;3.50;;;19.50;46.50;;;;;;5096026;27;20218;-73
2023/04/11 08:43:37;;;;;;;12.55;2.97;;;19.50;46.50;;;;;;5076309;28;20679;-72
2023/04/11 08:46:06;;;;;;;10.50;3.42;;;19.60;46.40;;;;;;5087679;28;20198;-71
2023/04/11 08:48:34;;;;;;;8.95;2.78;;;19.50;46.30;;;;;;5079796;28;20574;-72
2023/04/11 08:51:02;;;;;;;11.90;2.70;;;19.60;46.40;;;;;;5077111;28;20250;-72
2023/04/11 08:53:31;;;;;;;6.75;2.70;;;19.60;46.40;;;;;;5092405;28;20247;-71
2023/04/11 08:55:59;;;;;;;11.27;2.92;;;19.60;46.30;;;;;;5091912;28;20291;-71
2023/04/11 08:58:26;;;;;;;8.55;2.70;;;19.60;46.40;;;;;;5091900;28;20226;-71
2023/04/11 09:00:53;;;;;;;10.25;2.55;;;19.60;46.30;;;;;;5092157;28;20217;-72
2023/04/11 09:03:20;;;;;;;10.43;2.60;;;19.60;46.60;;;;;;5092503;28;20692;-74
2023/04/11 09:05:47;;;;;;;10.30;2.88;;;19.70;47.20;;;;;;5085756;28;20245;-72
2023/04/11 09:08:16;;;;;;;8.77;2.45;;;19.60;48.50;;;;;;5071419;28;20743;-72
2023/04/11 09:10:46;;;;;;;6.50;2.83;;;19.60;48.20;;;;;;5091627;28;20253;-72
2023/04/11 09:13:21;;;;;;;8.32;2.63;;;19.70;48.00;;;;;;5092331;28;20182;-71
2023/04/11 09:16:02;;;;;;;13.48;2.60;;;19.70;48.60;;;;;;5091399;28;20324;-71
2023/04/11 09:18:33;;;;;;;9.85;2.25;;;19.70;47.90;;;;;;5091657;28;20233;-71
2023/04/11 09:21:02;;;;;;;8.95;2.63;;;19.70;47.80;;;;;;5091512;28;20250;-71
2023/04/11 09:23:29;;;;;;;9.73;2.58;;;19.70;47.70;;;;;;5101440;28;20193;-71
2023/04/11 09:25:58;;;;;;;9.65;2.80;;;19.70;47.60;;;;;;5111732;28;20726;-72
2023/04/11 09:28:25;;;;;;;6.97;3.05;;;19.70;47.50;;;;;;5112308;28;20250;-72
2023/04/11 09:30:54;;;;;;;10.80;2.83;;;19.70;47.40;;;;;;5095625;28;20221;-72
2023/04/11 09:33:27;;;;;;;6.32;2.80;;;19.70;47.40;;;;;;5072644;28;20598;-72
2023/04/11 09:35:56;;;;;;;7.97;2.72;;;19.80;47.40;;;;;;5071324;28;20237;-72
2023/04/11 09:38:31;;;;;;;12.50;2.65;;;19.80;47.30;;;;;;5071504;28;20217;-72
2023/04/11 09:41:01;;;;;;;10.77;2.33;;;19.80;47.20;;;;;;5083297;28;20244;-73
2023/04/11 09:43:28;;;;;;;11.32;2.70;;;19.80;47.20;;;;;;5091653;28;20182;-72
2023/04/11 09:46:17;;;;;;;10.35;3.55;;;19.80;47.10;;;;;;5091196;28;20214;-72
2023/04/11 09:48:44;;;;;;;11.63;2.75;;;19.80;47.10;;;;;;5091387;28;20561;-72
2023/04/11 09:51:11;;;;;;;10.63;2.28;;;19.80;47.00;;;;;;5090978;28;20291;-72
2023/04/11 09:53:39;;;;;;;11.63;2.35;;;19.80;47.00;;;;;;5091615;28;20222;-73
2023/04/11 09:56:09;;;;;;;15.93;2.85;;;19.80;47.00;;;;;;5091314;28;20229;-72
2023/04/11 09:58:38;;;;;;;10.23;2.22;;;19.80;47.00;;;;;;5091199;28;20656;-72
2023/04/11 10:01:08;;;;;;;13.80;2.65;;;19.80;47.00;;;;;;5091416;28;20274;-73
2023/04/11 10:03:37;;;;;;;11.88;2.90;;;19.80;46.90;;;;;;5090415;28;20182;-72
2023/04/11 10:06:07;;;;;;;10.30;2.40;;;19.80;47.00;;;;;;5086495;28;20259;-72
2023/04/11 10:08:37;;;;;;;10.88;2.95;;;19.90;47.00;;;;;;5111088;28;20230;-73
2023/04/11 10:11:08;;;;;;;13.68;2.55;;;19.90;47.00;;;;;;5111954;28;20277;-72
2023/04/11 10:13:42;;;;;;;11.30;2.58;;;20.00;47.10;;;;;;5106746;28;20199;-72
2023/04/11 10:16:12;;;;;;;8.25;2.10;;;20.00;47.00;;;;;;5098232;28;20237;-72
2023/04/11 10:19:22;;;;;;;7.82;1.67;;;20.00;47.00;;;;;;5111256;28;20651;-72
2023/04/11 10:21:50;;;;;;;10.07;2.15;;;20.00;46.90;;;;;;5111346;28;20242;-72
2023/04/11 10:24:19;;;;;;;6.18;2.05;;;19.90;46.80;;;;;;5110362;28;20666;-73
2023/04/11 10:26:51;;;;;;;11.00;2.55;;;20.00;46.90;;;;;;5092960;28;20284;-72
2023/04/11 10:29:49;;;;;;;8.38;1.92;;;20.00;46.90;;;;;;5091039;28;20213;-72
2023/04/11 10:32:24;;;;;;;13.10;2.75;;;20.00;46.90;;;;;;5090446;28;20212;-72
2023/04/11 10:35:29;;;;;;;12.40;2.85;;;20.00;46.80;;;;;;5088878;28;20218;-72
2023/04/11 10:37:56;;;;;;;13.63;2.58;;;20.00;46.70;;;;;;5082564;28;20204;-72
2023/04/11 10:40:24;;;;;;;9.85;2.10;;;20.00;46.80;;;;;;5101106;28;20244;-72
2023/04/11 10:42:53;;;;;;;9.25;2.35;;;20.00;46.80;;;;;;5060777;28;20219;-73
2023/04/11 10:45:23;;;;;;;9.70;2.95;;;20.00;46.80;;;;;;5079700;28;20223;-73
2023/04/11 10:48:11;;;;;;;7.90;2.13;;;20.00;46.70;;;;;;5069150;28;20576;-73
2023/04/11 10:50:43;;;;;;;8.27;2.10;;;20.00;46.70;;;;;;5070684;28;20792;-74
2023/04/11 10:53:35;;;;;;;8.82;2.00;;;19.90;46.50;;;;;;5070612;28;20187;-74
2023/04/11 10:56:02;;;;;;;8.63;2.70;;;19.90;46.40;;;;;;5075593;28;20226;-75
2023/04/11 10:58:39;;;;;;;10.18;2.15;;;20.10;46.50;;;;;;5089634;28;20190;-75
2023/04/11 11:01:17;;;;;;;7.78;2.25;;;20.10;46.50;;;;;;5087280;28;20313;-75
2023/04/11 11:03:56;;;;;;;12.40;2.20;;;20.10;46.50;;;;;;5097165;28;20197;-76
2023/04/11 11:06:24;;;;;;;8.45;1.95;;;20.10;46.50;;;;;;5085804;28;20225;-74
2023/04/11 11:08:53;;;;;;;9.07;2.00;;;20.00;46.40;;;;;;5078922;28;20660;-75
2023/04/11 11:11:20;;;;;;;9.18;2.03;;;20.00;46.40;;;;;;5091002;28;20246;-74
2023/04/11 11:13:51;;;;;;;8.68;2.13;;;20.10;46.50;;;;;;5090306;28;20691;-74
2023/04/11 11:16:21;;;;;;;9.00;2.50;;;20.10;46.40;;;;;;5094298;28;20225;-74
2023/04/11 11:18:50;;;;;;;9.65;2.40;;;20.10;46.40;;;;;;5094445;28;20214;-74
2023/04/11 11:21:20;;;;;;;8.60;2.30;;;20.00;46.40;;;;;;5092764;28;20232;-73
2023/04/11 11:23:58;;;;;;;6.30;2.15;;;20.00;46.30;;;;;;5083713;28;20660;-75
2023/04/11 11:26:36;;;;;;;9.57;2.30;;;20.00;46.30;;;;;;5088372;28;20238;-73
2023/04/11 11:29:05;;;;;;;10.60;2.70;;;20.10;46.40;;;;;;5092927;28;20269;-74
2023/04/11 11:31:38;;;;;;;6.75;2.10;;;20.10;46.40;;;;;;5093296;28;20232;-74
2023/04/11 11:34:06;;;;;;;5.45;2.20;;;20.10;46.40;;;;;;5093776;28;20779;-75
2023/04/11 11:36:37;;;;;;;7.80;2.17;;;20.10;46.40;;;;;;5094038;28;20275;-74
2023/04/11 11:39:05;;;;;;;6.65;2.08;;;20.00;46.30;;;;;;5093863;28;20190;-75
2023/04/11 11:41:34;;;;;;;6.95;1.90;;;20.10;46.40;;;;;;5093609;28;20905;-75
2023/04/11 11:44:02;;;;;;;10.13;2.33;;;20.10;46.40;;;;;;5092763;28;20201;-74
2023/04/11 11:46:32;;;;;;;8.98;1.90;;;20.10;46.40;;;;;;5092844;28;20301;-73
2023/04/11 11:49:01;;;;;;;7.45;2.15;;;20.00;46.30;;;;;;5093294;28;20186;-73
2023/04/11 11:51:39;;;;;;;7.90;2.40;;;20.10;46.40;;;;;;5088594;28;20237;-75
2023/04/11 11:54:08;;;;;;;7.80;2.03;;;20.10;46.40;;;;;;5088643;28;20229;-76
2023/04/11 11:56:36;;;;;;;9.68;1.92;;;20.10;46.60;;;;;;5088234;28;20229;-75
2023/04/11 11:59:05;;;;;;;8.48;2.38;;;20.10;46.40;;;;;;5089871;28;20574;-75
2023/04/11 12:01:35;;;;;;;9.10;2.15;;;20.10;46.40;;;;;;5084719;28;20703;-75
2023/04/11 12:04:03;;;;;;;9.25;1.95;;;20.10;46.40;;;;;;5087982;28;20734;-75
2023/04/11 12:06:32;;;;;;;5.88;2.00;;;20.10;46.40;;;;;;5088282;28;20253;-75
2023/04/11 12:09:03;;;;;;;8.80;2.00;;;20.10;46.40;;;;;;5088310;28;20218;-75
2023/04/11 12:11:38;;;;;;;10.82;2.05;;;20.10;46.40;;;;;;5089953;28;20244;-78
2023/04/11 12:14:06;;;;;;;8.00;1.42;;;20.10;46.40;;;;;;5086245;28;20194;-76
2023/04/11 12:16:37;;;;;;;6.70;2.20;;;20.20;46.50;;;;;;5089857;28;20284;-75
2023/04/11 12:19:05;;;;;;;7.45;2.15;;;20.20;46.50;;;;;;5079836;28;20225;-73
2023/04/11 12:21:32;;;;;;;9.07;2.10;;;20.20;46.50;;;;;;5085353;28;20218;-75
2023/04/11 12:23:59;;;;;;;6.85;2.10;;;20.20;46.50;;;;;;5089509;28;20222;-74
2023/04/11 12:26:26;;;;;;;6.40;2.10;;;20.20;46.50;;;;;;5087849;28;20242;-75
2023/04/11 12:28:53;;;;;;;10.02;1.95;;;20.30;46.60;;;;;;5070745;28;20217;-75
2023/04/11 12:31:21;;;;;;;7.38;2.00;;;20.20;46.60;;;;;;5088998;28;20246;-74
2023/04/11 12:33:49;;;;;;;5.85;1.92;;;20.30;46.60;;;;;;5086411;28;20208;-79
2023/04/11 12:36:17;;;;;;;6.97;2.00;;;20.30;46.60;;;;;;5088277;28;20759;-82
2023/04/11 12:38:44;;;;;;;9.88;1.75;;;20.30;46.60;;;;;;5070372;28;20197;-78
2023/04/11 12:41:11;;;;;;;8.38;1.98;;;20.30;46.50;;;;;;5088316;28;20584;-85
2023/04/11 12:43:39;;;;;;;7.97;1.80;;;20.30;46.50;;;;;;5079516;28;20201;-79
2023/04/11 12:46:06;;;;;;;6.38;1.85;;;20.30;46.50;;;;;;5081267;28;20232;-84
2023/04/11 12:48:34;;;;;;;10.32;1.98;;;20.30;46.60;;;;;;5081524;28;20214;-83
2023/04/11 12:51:03;;;;;;;8.43;1.83;;;20.30;46.60;;;;;;5088510;28;20282;-81